Flight Track Log - Related Links

Times and Time Zones

All times are in EDT time to prevent confusion due to time zone crossing. See the N431EH flight status page for this flight to view local times or setup timezone preferences in your user account.

Time Position Orientation Groundspeed Altitude Reporting Facility
EDT Latitude Longitude Course Direction KTS MPH feet Rate Location/Type
Mon 09:40:03 AM 40.7912 -111.9621 180° South 115 132 4,300  Level FlightAware ADS-B (KBTF)
Mon 09:40:43 AM 40.7586 -111.9666 209° Southwest 206 237 5,500 2,264 Climbing FlightAware ADS-B (KBTF)
Mon 09:40:56 AM 40.7493 -111.9784 241° Southwest 210 242 6,300 3,600 Climbing FlightAware ADS-B
Mon 09:41:03 AM 40.7465 -111.9872 252° West 212 244 6,700 3,429 Climbing FlightAware ADS-B (KBTF)
Mon 09:41:17 AM 40.7447 -112.0051 269° West 222 255 7,500 3,529 Climbing FlightAware ADS-B
Mon 09:41:37 AM 40.7459 -112.0342 274° West 240 276 8,700 3,484 Climbing FlightAware ADS-B
Mon 09:41:48 AM 40.7468 -112.0446 283° West 250 288 9,300 3,429 Climbing FlightAware ADS-B
Mon 09:41:58 AM 40.7510 -112.0605 302° West 258 297 9,900 3,429 Climbing FlightAware ADS-B
Mon 09:42:09 AM 40.7616 -112.0771 314° West 263 303 10,500 3,290 Climbing FlightAware ADS-B
Mon 09:42:29 AM 40.7807 -112.1002 324° Northwest 280 322 11,600 3,429 Climbing FlightAware ADS-B
Mon 09:42:44 AM 40.7993 -112.1101 348° North 301 346 12,500 3,429 Climbing FlightAware ADS-B (KBTF)
Mon 09:42:50 AM 40.8080 -112.1112 359° North 307 353 12,800 3,176 Climbing FlightAware ADS-B
Mon 09:43:01 AM 40.8224 -112.1086 14° North 318 366 13,400 2,857 Climbing FlightAware ADS-B
Mon 09:43:11 AM 40.8372 -112.1006 28° Northeast 334 384 13,800 2,286 Climbing FlightAware ADS-B
Mon 09:43:22 AM 40.8469 -112.0913 43° Northeast 348 400 14,200 2,625 Climbing FlightAware ADS-B
Mon 09:43:43 AM 40.8694 -112.0471 67° East 371 427 15,200 2,667 Climbing FlightAware ADS-B
Mon 09:43:58 AM 40.8760 -112.0138 82° East 381 438 15,800 2,571 Climbing FlightAware ADS-B
Mon 09:44:04 AM 40.8767 -111.9989 89° East 383 441 16,100 2,700 Climbing FlightAware ADS-B (KBTF)
Mon 09:44:18 AM 40.8735 -111.9675 104° East 385 443 16,700 2,786 Climbing FlightAware ADS-B
Mon 09:45:00 AM 40.8448 -111.8732 113° Southeast 401 461 18,700 2,959 Climbing FlightAware ADS-B
Mon 09:45:31 AM 40.8227 -111.8046 113° Southeast 408 470 20,300 3,000 Climbing FlightAware ADS-B
Mon 09:46:02 AM 40.7995 -111.7336 116° Southeast 409 471 21,800 2,951 Climbing FlightAware ADS-B (KBTF)
Mon 09:46:32 AM 40.7726 -111.6655 118° Southeast 411 473 23,300 2,903 Climbing FlightAware ADS-B
Mon 09:47:04 AM 40.7443 -111.5966 119° Southeast 415 478 24,800 2,727 Climbing FlightAware ADS-B
Mon 09:47:27 AM 40.7228 -111.5443 118° Southeast 419 482 25,800 2,491 Climbing FlightAware ADS-B
Mon 09:47:57 AM 40.6953 -111.4772 118° Southeast 427 491 27,000 2,282 Climbing FlightAware ADS-B
Mon 09:48:38 AM 40.6563 -111.3825 119° Southeast 434 499 28,500 2,025 Climbing FlightAware ADS-B
Mon 09:49:17 AM 40.6184 -111.2909 119° Southeast 444 511 29,700 1,667 Climbing FlightAware ADS-B
Mon 09:49:50 AM 40.5871 -111.2151 119° Southeast 456 525 30,500 1,545 Climbing FlightAware ADS-B
Mon 09:50:23 AM 40.5536 -111.1345 119° Southeast 466 536 31,400 1,520 Climbing FlightAware ADS-B
Mon 09:51:05 AM 40.5077 -111.0251 119° Southeast 477 549 32,400 1,479 Climbing FlightAware ADS-B
Mon 09:51:36 AM 40.4749 -110.9463 119° Southeast 477 549 33,200 1,703 Climbing FlightAware ADS-B
Mon 09:52:19 AM 40.4295 -110.8375 119° Southeast 475 547 34,500 1,737 Climbing FlightAware ADS-B
Mon 09:52:52 AM 40.3952 -110.7556 119° Southeast 472 543 35,400 1,676 Climbing FlightAware ADS-B
Mon 09:53:27 AM 40.3602 -110.6725 119° Southeast 468 539 36,400 1,622 Climbing FlightAware ADS-B (KGUC)
Mon 09:54:06 AM 40.3552 -110.6606 119° Southeast 465 535 37,400 1,352 Climbing FlightAware ADS-B (KGUC)
Mon 09:54:38 AM 40.3093 -110.5519 119° Southeast 464 534 38,000 1,031 Climbing FlightAware ADS-B (KGUC)
Mon 09:55:10 AM 40.2555 -110.4254 119° Southeast 467 537 38,500 818 Climbing FlightAware ADS-B
Mon 09:55:44 AM 40.2239 -110.3512 119° Southeast 473 544 38,900 462 Climbing FlightAware ADS-B
Mon 09:56:15 AM 40.1930 -110.2790 119° Southeast 475 547 39,000 98 Climbing FlightAware ADS-B
Mon 09:56:45 AM 40.1496 -110.1776 119° Southeast 479 551 39,000  Level FlightAware ADS-B
Mon 09:57:19 AM 40.1128 -110.0917 119° Southeast 481 554 39,000  Level FlightAware ADS-B
Mon 09:57:52 AM 40.0863 -110.0302 119° Southeast 480 552 39,000  Level FlightAware ADS-B (KGUC)
Mon 09:58:22 AM 40.0497 -109.9452 119° Southeast 479 551 39,000  Level FlightAware ADS-B
Mon 09:58:53 AM 40.0112 -109.8565 119° Southeast 479 551 39,000  Level FlightAware ADS-B
Mon 09:59:27 AM 39.9738 -109.7703 119° Southeast 480 552 39,000  Level FlightAware ADS-B
Mon 09:59:57 AM 39.9416 -109.6961 120° Southeast 478 550 39,000  Level FlightAware ADS-B
Mon 10:00:31 AM 39.9060 -109.6145 120° Southeast 475 547 39,000  Level FlightAware ADS-B
Mon 10:01:02 AM 39.8725 -109.5379 120° Southeast 473 544 39,000  Level FlightAware ADS-B
Mon 10:01:35 AM 39.8352 -109.4529 120° Southeast 469 540 39,000  Level FlightAware ADS-B
Mon 10:02:05 AM 39.8031 -109.3799 120° Southeast 466 536 39,000  Level FlightAware ADS-B
Mon 10:02:39 AM 39.7673 -109.2987 120° Southeast 465 535 39,000  Level FlightAware ADS-B
Mon 10:03:09 AM 39.7389 -109.2344 120° Southeast 465 535 39,000  Level FlightAware ADS-B
Mon 10:03:46 AM 39.7024 -109.1519 120° Southeast 464 534 39,000  Level FlightAware ADS-B (KGUC)
Mon 10:04:19 AM 39.6637 -109.0647 120° Southeast 465 535 39,000  Level FlightAware ADS-B
Mon 10:04:54 AM 39.6242 -108.9761 120° Southeast 464 534 39,000  Level FlightAware ADS-B
Mon 10:05:24 AM 39.5983 -108.9180 120° Southeast 463 533 39,000  Level FlightAware ADS-B
Mon 10:05:58 AM 39.5539 -108.8188 120° Southeast 463 533 39,000  Level FlightAware ADS-B
Mon 10:06:40 AM 39.5266 -108.7578 120° Southeast 466 536 39,000  Level FlightAware ADS-B
Mon 10:07:12 AM 39.4751 -108.6433 120° Southeast 467 537 39,000  Level FlightAware ADS-B
Mon 10:07:43 AM 39.4403 -108.5663 120° Southeast 467 537 39,000  Level FlightAware ADS-B
Mon 10:08:16 AM 39.4037 -108.4854 120° Southeast 468 539 39,000  Level FlightAware ADS-B
Mon 10:08:59 AM 39.3788 -108.4306 120° Southeast 468 539 39,000  Level FlightAware ADS-B
Mon 10:09:29 AM 39.3293 -108.3217 120° Southeast 471 542 39,000  Level FlightAware ADS-B
Mon 10:09:59 AM 39.2930 -108.2418 120° Southeast 472 543 39,000  Level FlightAware ADS-B
Mon 10:10:29 AM 39.2609 -108.1716 121° Southeast 473 544 39,000  Level FlightAware ADS-B
Mon 10:11:03 AM 39.2204 -108.0833 121° Southeast 474 545 39,000  Level FlightAware ADS-B (KGUC)
Mon 10:11:33 AM 39.1877 -108.0120 121° Southeast 473 544 39,000  Level FlightAware ADS-B (KGUC)
Mon 10:12:03 AM 39.1543 -107.9394 121° Southeast 473 544 39,000  Level FlightAware ADS-B (KGUC)
Mon 10:12:37 AM 39.1174 -107.8594 121° Southeast 471 542 39,000  Level FlightAware ADS-B
Mon 10:13:12 AM 39.0764 -107.7707 121° Southeast 469 540 39,000  Level FlightAware ADS-B (KGUC)
Mon 10:13:43 AM 39.0447 -107.7024 121° Southeast 467 537 39,000  Level FlightAware ADS-B (KGUC)
Mon 10:14:13 AM 39.0133 -107.6350 121° Southeast 466 536 39,000  Level FlightAware ADS-B (KGUC)
Mon 10:14:43 AM 38.9765 -107.5559 121° Southeast 465 535 39,000  Level FlightAware ADS-B (KGUC)
Mon 10:15:13 AM 38.9434 -107.4851 121° Southeast 465 535 39,000  Level FlightAware ADS-B (KGUC)
Mon 10:15:49 AM 38.9073 -107.4080 121° Southeast 467 537 39,000  Level FlightAware ADS-B
Mon 10:16:23 AM 38.8755 -107.3402 121° Southeast 468 539 39,000  Level FlightAware ADS-B
Mon 10:16:53 AM 38.8352 -107.2543 121° Southeast 467 537 39,000  Level FlightAware ADS-B
Mon 10:17:23 AM 38.7995 -107.1786 121° Southeast 463 533 39,000  Level FlightAware ADS-B (KGUC)
Mon 10:17:55 AM 38.7655 -107.1068 121° Southeast 459 528 39,000  Level FlightAware ADS-B
Mon 10:18:36 AM 38.7273 -107.0260 121° Southeast 452 520 39,000  Level FlightAware ADS-B
Mon 10:19:06 AM 38.6871 -106.9414 121° Southeast 448 516 39,000  Level FlightAware ADS-B
Mon 10:19:40 AM 38.6501 -106.8638 121° Southeast 447 514 39,000  Level FlightAware ADS-B
Mon 10:20:10 AM 38.6178 -106.7961 121° Southeast 448 516 39,000  Level FlightAware ADS-B
Mon 10:20:48 AM 38.5808 -106.7187 121° Southeast 447 514 39,000  Level FlightAware ADS-B (KEIK)
Mon 10:21:27 AM 38.5349 -106.6230 121° Southeast 447 514 39,000  Level FlightAware ADS-B (KEIK)
Mon 10:22:02 AM 38.4977 -106.5455 121° Southeast 448 516 39,000  Level FlightAware ADS-B (KGUC)
Mon 10:22:36 AM 38.4617 -106.4708 122° Southeast 449 517 39,000  Level FlightAware ADS-B
Mon 10:23:06 AM 38.4280 -106.4011 122° Southeast 450 518 39,000  Level FlightAware ADS-B
Mon 10:23:36 AM 38.3967 -106.3364 122° Southeast 450 518 39,000  Level FlightAware ADS-B
Mon 10:24:06 AM 38.3643 -106.2697 122° Southeast 450 518 39,000  Level FlightAware ADS-B
Mon 10:24:37 AM 38.3295 -106.1982 122° Southeast 451 519 39,000  Level FlightAware ADS-B (KEIK)
Mon 10:25:08 AM 38.2977 -106.1329 122° Southeast 453 521 39,000  Level FlightAware ADS-B (KEIK)
Mon 10:25:39 AM 38.2614 -106.0583 122° Southeast 453 521 39,000  Level FlightAware ADS-B (KEIK)
Mon 10:26:09 AM 38.2293 -105.9928 122° Southeast 456 525 39,000  Level FlightAware ADS-B (KEIK)
Mon 10:26:42 AM 38.1902 -105.9128 122° Southeast 458 527 39,000  Level FlightAware ADS-B
Mon 10:27:19 AM 38.1492 -105.8294 122° Southeast 460 529 39,000  Level FlightAware ADS-B (KEIK)
Mon 10:27:54 AM 38.1089 -105.7478 122° Southeast 461 531 39,000  Level FlightAware ADS-B (KGUC)
Mon 10:28:36 AM 38.0612 -105.6512 122° Southeast 461 531 39,000  Level FlightAware ADS-B (KEIK)
Mon 10:29:21 AM 38.0102 -105.5485 122° Southeast 467 537 39,000  Level FlightAware ADS-B (KEIK)
Mon 10:29:51 AM 37.9760 -105.4797 122° Southeast 472 543 39,000  Level FlightAware ADS-B (KEIK)
Mon 10:30:30 AM 37.9297 -105.3868 122° Southeast 469 540 39,000  Level FlightAware ADS-B (KEIK)
Mon 10:31:23 AM 37.9060 -105.3392 122° Southeast 470 541 39,000  Level FlightAware ADS-B (KEIK)
Mon 10:32:24 AM 37.7979 -105.1235 122° Southeast 468 539 39,000  Level FlightAware ADS-B (KEIK)
Mon 10:33:06 AM 37.7496 -105.0275 122° Southeast 469 540 39,000  Level FlightAware ADS-B (KEIK)
Mon 10:33:36 AM 37.7143 -104.9576 123° Southeast 467 537 39,000  Level FlightAware ADS-B (KEIK)
Mon 10:34:08 AM 37.7020 -104.9333 122° Southeast 468 539 39,000  Level FlightAware ADS-B (KEIK)
Mon 10:34:48 AM 37.6346 -104.8002 123° Southeast 467 537 39,000  Level FlightAware ADS-B (KEIK)
Mon 10:35:18 AM 37.5957 -104.7238 123° Southeast 468 539 39,000  Level FlightAware ADS-B (KEIK)
Mon 10:36:09 AM 37.5460 -104.6263 123° Southeast 468 539 39,000  Level FlightAware ADS-B (KEIK)
Mon 10:36:56 AM 37.4865 -104.5101 123° Southeast 469 540 39,000  Level FlightAware ADS-B (KEIK)
Mon 10:37:46 AM 37.4225 -104.3853 123° Southeast 468 539 39,000  Level FlightAware ADS-B (KEIK)
Mon 10:38:18 AM 37.3936 -104.3292 123° Southeast 468 539 39,000  Level FlightAware ADS-B (KEIK)
Mon 10:39:19 AM 37.3189 -104.1864 123° Southeast 467 537 39,000  Level Albuquerque Center
Mon 10:39:59 AM 37.2950 -104.1372 121° Southeast 466 536 39,000  Level Denver Center
Mon 10:41:01 AM 37.1958 -103.9461 123° Southeast 466 536 39,000  Level Denver Center
Mon 10:42:03 AM 37.1278 -103.8153 123° Southeast 463 533 39,000  Level Denver Center
Mon 10:43:05 AM 37.0592 -103.6858 124° Southeast 462 532 39,000  Level Denver Center
Mon 10:44:07 AM 36.9797 -103.5347 123° Southeast 464 534 39,000  Level Denver Center
Mon 10:45:09 AM 36.9117 -103.4072 124° Southeast 465 535 39,000  Level Denver Center
Mon 10:46:11 AM 36.8328 -103.2569 123° Southeast 465 535 39,000  Level Denver Center
Mon 10:47:33 AM 36.7333 -103.0722 124° Southeast 464 534 39,000  Level Albuquerque Center
Mon 10:48:35 AM 36.6600 -102.9356 124° Southeast 465 535 39,000  Level Albuquerque Center
Mon 10:49:37 AM 36.5958 -102.8147 123° Southeast 466 536 39,000  Level Albuquerque Center
Mon 10:50:39 AM 36.5083 -102.6528 124° Southeast 467 537 39,000  Level Albuquerque Center
Mon 10:51:41 AM 36.4347 -102.5192 124° Southeast 467 537 39,000  Level Albuquerque Center
Mon 10:52:43 AM 36.3619 -102.3839 124° Southeast 467 537 39,000  Level Albuquerque Center
Mon 10:53:44 AM 36.2886 -102.2494 124° Southeast 468 539 39,000  Level Albuquerque Center
Mon 10:54:46 AM 36.2147 -102.1156 124° Southeast 469 540 39,000  Level Albuquerque Center
Mon 10:55:48 AM 36.1411 -101.9819 124° Southeast 469 540 39,000  Level Albuquerque Center
Mon 10:56:50 AM 36.0661 -101.8483 125° Southeast 469 540 39,000  Level Albuquerque Center
Mon 10:57:52 AM 35.9769 -101.6878 124° Southeast 469 540 39,000  Level Albuquerque Center
Mon 10:58:53 AM 35.9017 -101.5553 125° Southeast 469 540 39,000  Level Albuquerque Center
Mon 10:59:55 AM 35.8267 -101.4219 125° Southeast 470 541 39,000  Level Albuquerque Center
Mon 11:00:57 AM 35.7497 -101.2878 125° Southeast 472 543 39,000  Level Albuquerque Center
Mon 11:01:59 AM 35.6739 -101.1542 125° Southeast 472 543 39,000  Level Albuquerque Center
Mon 11:03:01 AM 35.5981 -101.0214 125° Southeast 473 544 39,000  Level Albuquerque Center
Mon 11:04:02 AM 35.5222 -100.8892 125° Southeast 472 543 39,000  Level Albuquerque Center
Mon 11:05:04 AM 35.4458 -100.7569 125° Southeast 472 543 39,000  Level Albuquerque Center
Mon 11:06:06 AM 35.3661 -100.6197 125° Southeast 472 543 39,000  Level Albuquerque Center
Mon 11:07:08 AM 35.2903 -100.4894 125° Southeast 472 543 39,000  Level Albuquerque Center
Mon 11:08:10 AM 35.1997 -100.3339 125° Southeast 472 543 39,000  Level Albuquerque Center
Mon 11:09:12 AM 35.1233 -100.2044 126° Southeast 472 543 39,000  Level Albuquerque Center
Mon 11:10:14 AM 35.0469 -100.0753 126° Southeast 472 543 39,000 -146 Level Albuquerque Center
Mon 11:11:15 AM 34.9711 -99.9461 126° Southeast 471 542 38,700 -634 Descending Albuquerque Center
Mon 11:12:17 AM 34.8936 -99.8167 126° Southeast 471 542 37,700 -1,065 Descending Albuquerque Center
Mon 11:13:19 AM 34.8164 -99.6864 126° Southeast 472 543 36,500 -1,210 Descending Albuquerque Center
Mon 11:14:21 AM 34.7222 -99.5294 126° Southeast 477 549 35,200 -1,113 Descending Albuquerque Center
Mon 11:15:23 AM 34.6453 -99.3978 125° Southeast 477 549 34,200 -966 Descending Albuquerque Center
Mon 11:16:50 AM 34.5344 -99.2167 127° Southeast 479 551 32,800 -966 Descending Fort Worth Center
Mon 11:17:52 AM 34.4544 -99.0856 126° Southeast 483 556 31,800 -968 Descending Fort Worth Center
Mon 11:18:54 AM 34.3758 -98.9564 126° Southeast 482 555 30,800 -1,056 Descending Fort Worth Center
Mon 11:19:57 AM 34.2822 -98.8031 126° Southeast 478 550 29,600 -1,065 Descending Fort Worth Center
Mon 11:20:58 AM 34.2031 -98.6747 127° Southeast 476 548 28,600 -968 Descending Fort Worth Center
Mon 11:22:01 AM 34.1253 -98.5467 126° Southeast 476 548 27,600 -960 Descending Fort Worth Center
Mon 11:23:03 AM 34.0508 -98.4250 126° Southeast 473 544 26,600 -1,306 Descending Fort Worth Center
Mon 11:24:05 AM 33.9719 -98.2997 127° Southeast 470 541 24,900 -1,935 Descending Fort Worth Center
Mon 11:25:07 AM 33.8850 -98.1564 126° Southeast 465 535 22,600 -2,081 Descending Fort Worth Center
Mon 11:26:09 AM 33.8114 -98.0375 127° Southeast 426 490 20,600 -1,935 Descending Fort Worth Center
Mon 11:27:11 AM 33.7386 -97.9219 127° Southeast 419 482 18,600 -1,887 Descending Fort Worth Center
Mon 11:28:13 AM 33.6669 -97.8075 127° Southeast 411 473 16,700 -1,672 Descending Fort Worth Center
Mon 11:33:35 AM 33.3858 -97.2920 113° Southeast 301 346 7,900 -1,651 Descending FlightAware ADS-B
Mon 11:33:51 AM 33.3815 -97.2798 112° Southeast 296 341 7,400 -900 Descending FlightAware ADS-B
Mon 11:36:15 AM 33.3911 -97.0487 81° East 293 337 5,500 -428 Descending FlightAware ADS-B
Mon 11:41:48 AM 33.1494 -96.8161 191° South 244 281 4,000 -233 Descending FlightAware ADS-B
Mon 11:42:42 AM 33.0906 -96.8314 191° South 212 244 4,000 -362 Level Fort Worth Center
Mon 11:43:44 AM 33.0397 -96.8572 203° Southwest 198 228 3,300 -480 Descending Fort Worth Center
Mon 11:44:47 AM 32.9881 -96.8839 203° Southwest 200 230 3,000 -336 Descending Fort Worth Center
Mon 11:45:49 AM 32.9369 -96.9053 199° South 186 214 2,600 -484 Descending Fort Worth Center
Mon 11:46:51 AM 32.8983 -96.9014 175° South 140 161 2,000 -774 Descending Fort Worth Center
Mon 11:47:53 AM 32.8644 -96.8800 152° Southeast 130 150 1,000 -726 Descending Fort Worth Center
Mon 11:48:55 AM 32.8392 -96.8492 134° Southeast 130 150 500 -484 Descending Fort Worth Center
Mon 11:50:00 AM 32.8333 -96.8500 151° Southeast  Level FlightAware Approximate
Mon 11:57:00 AM 32.8471 -96.8518 151° Southeast  Level Estimated

Login

Don't have an account? Register now (free) for customized features, flight alerts, and more!